createdAt,value
2022-09-23T00:00:22.121Z,22.1
2022-09-23T00:02:24.273Z,20.7
2022-09-23T00:04:26.382Z,20.8
2022-09-23T00:05:29.048Z,20.6
2022-09-23T00:07:31.178Z,22.5
2022-09-23T00:09:33.313Z,21
2022-09-23T00:13:40.758Z,22.4
2022-09-23T00:15:42.877Z,19.6
2022-09-23T00:19:47.149Z,19.1
2022-09-23T00:21:49.318Z,20
2022-09-23T00:27:58.910Z,22.3
2022-09-23T00:34:05.323Z,20.5
2022-09-23T00:36:07.478Z,20.9
2022-09-23T00:38:09.656Z,21.7
2022-09-23T00:40:12.011Z,21.3
2022-09-23T00:42:17.167Z,23.4
2022-09-23T00:44:19.201Z,22.1
2022-09-23T00:46:21.435Z,21.6
2022-09-23T00:48:23.508Z,20.7
2022-09-23T00:50:25.659Z,21.5
2022-09-23T00:52:27.812Z,22.2
2022-09-23T00:54:29.948Z,22
2022-09-23T00:56:35.245Z,23
2022-09-23T00:58:37.371Z,22.8
2022-09-23T01:01:42.186Z,24.9
2022-09-23T01:05:46.403Z,24.3
2022-09-23T01:07:48.551Z,24.3
2022-09-23T01:09:55.341Z,23.6
2022-09-23T01:11:57.592Z,26.2
2022-09-23T01:13:59.609Z,24.4
2022-09-23T01:16:01.757Z,23.8
2022-09-23T01:18:03.910Z,23.6
2022-09-23T01:20:06.109Z,23.3
2022-09-23T01:22:08.224Z,23.6
2022-09-23T01:24:13.505Z,24.9
2022-09-23T01:26:15.669Z,25
2022-09-23T01:28:17.795Z,23.1
2022-09-23T01:30:19.955Z,22.8
2022-09-23T01:32:22.100Z,22.1
2022-09-23T01:34:24.299Z,22.2
2022-09-23T01:36:26.356Z,21.7
2022-09-23T01:38:31.646Z,21.7
2022-09-23T01:40:33.894Z,22.8
2022-09-23T01:42:35.903Z,23
2022-09-23T01:44:38.054Z,22.6
2022-09-23T01:46:40.220Z,24
2022-09-23T01:48:42.385Z,22.5
2022-09-23T01:50:44.481Z,22.2
2022-09-23T01:52:49.775Z,22.4
2022-09-23T01:54:51.923Z,22
2022-09-23T01:56:54.064Z,24.1
2022-09-23T01:59:17.273Z,23.5
2022-09-23T02:01:19.522Z,21.6
2022-09-23T02:03:21.577Z,21.6
2022-09-23T02:05:26.826Z,22.1
2022-09-23T02:07:28.954Z,23.4
2022-09-23T02:09:31.071Z,23
2022-09-23T02:11:33.211Z,22.3
2022-09-23T02:13:35.361Z,21.2
2022-09-23T02:15:37.475Z,22.4
2022-09-23T02:17:39.650Z,23.2
2022-09-23T02:19:44.877Z,24.3
2022-09-23T02:22:19.802Z,24
2022-09-23T02:23:49.168Z,22.6
2022-09-23T02:25:51.271Z,23.5
2022-09-23T02:27:53.410Z,23.1
2022-09-23T02:29:55.541Z,20.8
2022-09-23T02:31:57.715Z,24.4
2022-09-23T02:34:02.937Z,28.4
2022-09-23T02:36:05.058Z,27
2022-09-23T02:38:07.202Z,24.9
2022-09-23T02:40:09.346Z,24.1
2022-09-23T02:42:11.447Z,27
2022-09-23T02:46:15.735Z,26
2022-09-23T02:48:20.972Z,26.8
2022-09-23T02:50:23.074Z,27.4
2022-09-23T02:53:27.833Z,29.3
2022-09-23T02:55:29.981Z,28.5
2022-09-23T02:57:32.093Z,27.9
2022-09-23T02:59:34.261Z,31.5
2022-09-23T03:01:39.558Z,33.1
2022-09-23T03:03:41.609Z,34.3
2022-09-23T03:05:43.733Z,31.6
2022-09-23T03:07:45.877Z,30.8
2022-09-23T03:09:48.003Z,33.3
2022-09-23T03:11:50.144Z,32.9
2022-09-23T03:13:52.241Z,33.6
2022-09-23T03:15:57.534Z,33
2022-09-23T03:17:59.645Z,34.9
2022-09-23T03:30:15.530Z,34.5
2022-09-23T03:32:17.648Z,32.2
2022-09-23T03:34:19.789Z,34.5
2022-09-23T03:36:21.899Z,33.4
2022-09-23T03:42:28.227Z,34.4
2022-09-23T03:44:33.521Z,36.2
2022-09-23T03:46:35.627Z,33.4
2022-09-23T03:48:37.744Z,33.4
2022-09-23T03:49:40.393Z,35.7
2022-09-23T03:51:44.633Z,32.6
2022-09-23T03:55:46.765Z,35.5
2022-09-23T03:57:52.038Z,33.4
2022-09-23T03:59:54.162Z,30.8
2022-09-23T04:01:56.327Z,32.8
2022-09-23T04:03:58.426Z,30.3
2022-09-23T04:06:00.566Z,30.2
2022-09-23T04:08:02.680Z,29.7
2022-09-23T04:12:10.048Z,33.3
2022-09-23T04:14:12.213Z,30
2022-09-23T04:18:16.425Z,30.5
2022-09-23T04:20:18.575Z,30
2022-09-23T04:22:20.666Z,28.3
2022-09-23T04:26:28.063Z,30.6
2022-09-23T04:34:36.584Z,30
2022-09-23T04:36:38.685Z,29.9
2022-09-23T04:40:46.117Z,29.6
2022-09-23T04:42:48.202Z,32
2022-09-23T04:44:50.319Z,29.4
2022-09-23T04:45:52.957Z,29.4
2022-09-23T04:49:59.808Z,26.7
2022-09-23T04:58:08.900Z,26.6
2022-09-23T05:02:13.161Z,25.9
2022-09-23T05:04:15.296Z,27
2022-09-23T05:06:17.404Z,26.3
2022-09-23T05:08:22.669Z,27.5
2022-09-23T05:14:29.044Z,28
2022-09-23T05:20:35.444Z,27.9
2022-09-23T05:22:40.716Z,32.5
2022-09-23T05:24:42.839Z,31
2022-09-23T05:28:47.091Z,30.4
2022-09-23T05:30:49.216Z,29.7
2022-09-23T05:32:51.360Z,31.2
2022-09-23T05:34:53.467Z,32.5
2022-09-23T05:36:58.774Z,34.4
2022-09-23T05:39:00.892Z,33.2
2022-09-23T05:41:03.045Z,31.5
2022-09-23T05:43:26.049Z,32.8
2022-09-23T05:45:28.192Z,29.9
2022-09-23T05:47:30.316Z,31.7
2022-09-23T05:49:58.138Z,32.6
2022-09-23T05:51:37.691Z,32.6
2022-09-23T05:53:39.811Z,31.2
2022-09-23T05:55:41.934Z,30.5
2022-09-23T05:57:44.099Z,33.1
2022-09-23T05:59:46.207Z,30.7
2022-09-23T06:01:49.616Z,31.5
2022-09-23T06:03:53.646Z,31.1
2022-09-23T06:05:55.781Z,30.2
2022-09-23T06:07:57.893Z,31.5
2022-09-23T06:10:00.038Z,31
2022-09-23T06:12:02.171Z,28
2022-09-23T06:14:04.430Z,31
2022-09-23T06:16:06.469Z,27.5
2022-09-23T06:18:11.731Z,29.4
2022-09-23T06:20:13.856Z,27.8
2022-09-23T06:22:15.992Z,27.4
2022-09-23T06:24:21.243Z,26.3
2022-09-23T06:26:20.279Z,25.7
2022-09-23T06:28:22.408Z,27.6
2022-09-23T06:30:24.561Z,27
2022-09-23T06:32:29.849Z,26.2
2022-09-23T06:34:36.947Z,26.7
2022-09-23T06:36:42.733Z,25.2
2022-09-23T06:39:38.911Z,25.3
2022-09-23T06:41:41.093Z,21.3
2022-09-23T06:43:43.210Z,23
2022-09-23T06:45:48.514Z,22.6
2022-09-23T06:47:50.678Z,21.8
2022-09-23T06:49:52.796Z,22
2022-09-23T06:51:54.931Z,22.7
2022-09-23T06:53:57.089Z,20.9
2022-09-23T06:55:59.256Z,20
2022-09-23T06:58:01.317Z,18.5
2022-09-23T07:00:08.126Z,22.1
2022-09-23T07:02:11.322Z,19.6
2022-09-23T07:06:14.225Z,19.2
2022-09-23T07:08:16.408Z,20.5
2022-09-23T07:10:18.512Z,19.7
2022-09-23T07:12:20.562Z,20.4
2022-09-23T07:14:25.668Z,18.6
2022-09-23T07:16:27.765Z,18
2022-09-23T07:18:34.245Z,17.1
2022-09-23T07:20:31.787Z,15.8
2022-09-23T07:22:33.828Z,17.6
2022-09-23T07:24:35.888Z,16.2
2022-09-23T07:26:41.116Z,16.3
2022-09-23T07:28:43.044Z,17.5
2022-09-23T07:30:54.316Z,13.9
2022-09-23T07:32:48.999Z,15.8
2022-09-23T07:33:49.674Z,15.2
2022-09-23T07:35:51.730Z,14.9
2022-09-23T07:37:53.780Z,15
2022-09-23T07:39:55.841Z,14.7
2022-09-23T07:44:02.971Z,15.3
2022-09-23T07:46:05.094Z,14
2022-09-23T07:48:07.153Z,13.1
2022-09-23T07:50:09.133Z,15
2022-09-23T07:52:11.161Z,13.6
2022-09-23T07:54:13.223Z,14.2
2022-09-23T07:56:18.295Z,12.9
2022-09-23T07:58:20.401Z,14.4
2022-09-23T08:00:22.407Z,13.5
2022-09-23T08:02:24.474Z,13.7
2022-09-23T08:04:26.490Z,10.9
2022-09-23T08:06:28.511Z,12.2
2022-09-23T08:08:30.573Z,12.2
2022-09-23T08:10:35.661Z,11.7
2022-09-23T08:12:37.699Z,11
2022-09-23T08:14:39.743Z,10.9
2022-09-23T08:16:41.803Z,11.4
2022-09-23T08:18:43.826Z,10.6
2022-09-23T08:20:47.381Z,11.7
2022-09-23T08:22:47.929Z,11.2
2022-09-23T08:24:55.381Z,10.7
2022-09-23T08:26:55.054Z,10.6
2022-09-23T08:28:57.187Z,9.4
2022-09-23T08:29:59.697Z,9.7
2022-09-23T08:32:01.745Z,11
2022-09-23T08:34:03.781Z,10.9
2022-09-23T08:36:05.828Z,12
2022-09-23T08:38:10.913Z,11
2022-09-23T08:40:13.016Z,10.6
2022-09-23T08:42:15.009Z,12.1
2022-09-23T08:44:17.052Z,10.2
2022-09-23T08:50:23.153Z,10.3
2022-09-23T08:54:30.286Z,9.5
2022-09-23T08:56:35.265Z,9.4
2022-09-23T08:58:34.358Z,8.7
2022-09-23T09:02:38.489Z,9.7
2022-09-23T09:04:40.453Z,9.4
2022-09-23T09:06:52.898Z,10.2
2022-09-23T09:08:47.593Z,9.8
2022-09-23T09:10:49.615Z,9
2022-09-23T09:12:51.654Z,8.2
2022-09-23T09:14:53.663Z,9.6
2022-09-23T09:17:00.071Z,8.9
2022-09-23T09:18:57.722Z,9.7
2022-09-23T09:21:02.821Z,8.4
2022-09-23T09:23:04.854Z,9.4
2022-09-23T09:25:06.885Z,9.3
2022-09-23T09:27:29.649Z,8.6
2022-09-23T09:29:35.446Z,8.6
2022-09-23T09:31:33.842Z,8.8
2022-09-23T09:33:38.903Z,9
2022-09-23T09:35:40.808Z,9.4
2022-09-23T09:37:42.842Z,10.5
2022-09-23T09:39:44.848Z,9.1
2022-09-23T09:41:46.865Z,8.8
2022-09-23T09:43:48.875Z,8.6
2022-09-23T09:45:55.185Z,9
2022-09-23T09:47:55.997Z,8.6
2022-09-23T09:49:57.998Z,8.7
2022-09-23T09:52:00.042Z,7.1
2022-09-23T09:54:02.016Z,7.5
2022-09-23T09:56:05.648Z,8.5
2022-09-23T09:58:06.016Z,9.3
2022-09-23T10:00:08.068Z,7.5
2022-09-23T10:02:13.120Z,8.1
2022-09-23T10:04:15.149Z,7.2
2022-09-23T10:06:17.122Z,6.9
2022-09-23T10:08:19.129Z,6.3
2022-09-23T10:10:31.739Z,6.8
2022-09-23T10:12:23.163Z,7.2
2022-09-23T10:14:25.157Z,8.3
2022-09-23T10:18:32.267Z,7.4
2022-09-23T10:21:36.811Z,8.5
2022-09-23T10:23:38.823Z,7.2
2022-09-23T10:25:40.835Z,7.8
2022-09-23T10:27:42.822Z,8.5
2022-09-23T10:29:47.924Z,7
2022-09-23T10:31:49.908Z,7.5
2022-09-23T10:33:51.900Z,7.1
2022-09-23T10:35:53.945Z,7.7
2022-09-23T10:37:55.930Z,6.5
2022-09-23T10:39:57.925Z,7.6
2022-09-23T10:41:59.928Z,7.9
2022-09-23T10:44:05.017Z,6.8
2022-09-23T10:46:07.093Z,6.6
2022-09-23T10:48:08.998Z,8.2
2022-09-23T10:50:11.004Z,5.6
2022-09-23T10:52:13.298Z,6.4
2022-09-23T10:54:14.962Z,7
2022-09-23T10:56:16.978Z,5.4
2022-09-23T10:58:22.029Z,6
2022-09-23T11:00:24.189Z,6.2
2022-09-23T11:02:25.995Z,6.4
2022-09-23T11:04:28.036Z,6.5
2022-09-23T11:06:29.981Z,5.6
2022-09-23T11:08:31.959Z,5.1
2022-09-23T11:10:45.908Z,5.8
2022-09-23T11:12:39.783Z,5
2022-09-23T11:14:41.764Z,6.1
2022-09-23T11:16:43.859Z,4.9
2022-09-23T11:19:48.272Z,5.3
2022-09-23T11:21:50.244Z,6
2022-09-23T11:23:52.237Z,6
2022-09-23T11:25:57.292Z,6.4
2022-09-23T11:27:59.281Z,5.9
2022-09-23T11:30:01.260Z,5.5
2022-09-23T11:32:03.242Z,6.9
2022-09-23T11:34:05.231Z,6.7
2022-09-23T11:38:09.189Z,6.6
2022-09-23T11:40:14.357Z,6.1
2022-09-23T11:42:16.267Z,6.5
2022-09-23T11:44:18.237Z,7
2022-09-23T11:46:20.318Z,6.2
2022-09-23T11:48:22.229Z,6.5
2022-09-23T11:50:24.219Z,9.8
2022-09-23T11:52:26.205Z,5.9
2022-09-23T11:54:31.304Z,7.5
2022-09-23T11:56:35.216Z,7.7
2022-09-23T11:58:35.276Z,5.6
2022-09-23T12:00:37.229Z,6.3
2022-09-23T12:02:39.290Z,9.5
2022-09-23T12:04:50.256Z,12
2022-09-23T12:06:43.259Z,9
2022-09-23T12:08:48.286Z,6.9
2022-09-23T12:10:50.293Z,6.6
2022-09-23T12:12:52.307Z,6.5
2022-09-23T12:13:54.828Z,5.7
2022-09-23T12:15:56.796Z,7
2022-09-23T12:17:58.784Z,4.4
2022-09-23T12:20:00.769Z,8.2
2022-09-23T12:22:05.863Z,4.4
2022-09-23T12:24:07.914Z,2.9
2022-09-23T12:26:09.841Z,3.3
2022-09-23T12:28:11.819Z,3.6
2022-09-23T12:30:13.818Z,2.7
2022-09-23T12:32:15.805Z,3.3
2022-09-23T12:34:17.778Z,2.9
2022-09-23T12:36:22.842Z,2.8
2022-09-23T12:38:24.815Z,3.1
2022-09-23T12:40:26.866Z,3.4
2022-09-23T12:42:31.147Z,2.5
2022-09-23T12:44:30.761Z,2.9
2022-09-23T12:46:32.730Z,2.9
2022-09-23T12:48:34.720Z,4.7
2022-09-23T12:50:39.799Z,3.6
2022-09-23T12:52:43.308Z,2.6
2022-09-23T12:54:45.240Z,3
2022-09-23T12:56:47.242Z,3.2
2022-09-23T12:58:49.179Z,2.7
2022-09-23T13:02:53.156Z,2.9
2022-09-23T13:04:58.225Z,3.2
2022-09-23T13:07:00.188Z,3
2022-09-23T13:09:02.185Z,2.6
2022-09-23T13:11:24.731Z,3.4
2022-09-23T13:13:26.748Z,2.7
2022-09-23T13:15:28.702Z,3
2022-09-23T13:17:33.772Z,2
2022-09-23T13:19:38.781Z,2.3
2022-09-23T13:21:37.720Z,2.8
2022-09-23T13:23:39.694Z,2.5
2022-09-23T13:25:41.680Z,2.8
2022-09-23T13:27:43.634Z,2.9
2022-09-23T13:29:45.635Z,2.7
2022-09-23T13:31:50.759Z,4.1
2022-09-23T13:33:52.655Z,3.3
2022-09-23T13:35:54.632Z,2.9
2022-09-23T13:37:56.622Z,2.1
2022-09-23T13:39:58.569Z,3.1
2022-09-23T13:42:00.563Z,2.9
2022-09-23T13:44:02.571Z,4.2
2022-09-23T13:52:13.511Z,2.4
2022-09-23T13:54:15.564Z,3.4
2022-09-23T14:04:28.476Z,3.1
2022-09-23T14:05:31.005Z,4.5
2022-09-23T14:07:32.996Z,3.3
2022-09-23T14:09:34.992Z,3.4
2022-09-23T14:11:36.981Z,3.7
2022-09-23T14:13:42.023Z,3.3
2022-09-23T14:15:44.029Z,3.6
2022-09-23T14:17:45.998Z,3.7
2022-09-23T14:19:47.997Z,3.8
2022-09-23T14:21:50.006Z,3.7
2022-09-23T14:23:51.985Z,3.8
2022-09-23T14:25:53.964Z,4.2
2022-09-23T14:28:00.559Z,3.6
2022-09-23T14:32:03.049Z,3.1
2022-09-23T14:34:04.983Z,4.4
2022-09-23T14:36:06.977Z,4.3
2022-09-23T14:38:08.953Z,5.2
2022-09-23T14:42:16.042Z,5.3
2022-09-23T14:44:18.028Z,5.2
2022-09-23T14:46:20.108Z,6.6
2022-09-23T14:50:24.009Z,6.1
2022-09-23T14:52:25.993Z,6.6
2022-09-23T14:56:33.063Z,7.3
2022-09-23T14:58:35.066Z,7
2022-09-23T15:01:39.708Z,6.1
2022-09-23T15:03:41.703Z,6.5
2022-09-23T15:05:43.587Z,6.2
2022-09-23T15:07:45.598Z,7.5
2022-09-23T15:09:50.654Z,9.3
2022-09-23T15:11:52.711Z,7.8
2022-09-23T15:13:54.636Z,7.4
2022-09-23T15:15:56.672Z,7
2022-09-23T15:17:58.644Z,7.1
2022-09-23T15:20:00.649Z,8.8
2022-09-23T15:22:02.627Z,7
2022-09-23T15:24:07.950Z,7.1
2022-09-23T15:26:09.726Z,6.6
2022-09-23T15:28:11.741Z,7.6
2022-09-23T15:30:14.988Z,7.3
2022-09-23T15:32:15.745Z,6.6
2022-09-23T15:34:17.748Z,7
2022-09-23T15:36:19.747Z,6.7
2022-09-23T15:38:24.847Z,7.7
2022-09-23T15:42:28.868Z,6.3
2022-09-23T15:44:30.897Z,6.7
2022-09-23T15:46:32.884Z,6.5
2022-09-23T15:48:34.878Z,6.2
2022-09-23T15:54:43.975Z,6.1
2022-09-23T15:56:46.008Z,5.8
2022-09-23T15:59:50.531Z,6.2
2022-09-23T16:01:52.692Z,6.9
2022-09-23T16:03:54.566Z,7.1
2022-09-23T16:05:59.655Z,7.4
2022-09-23T16:10:03.762Z,6.6
2022-09-23T16:12:05.715Z,6
2022-09-23T16:14:07.707Z,5.9
2022-09-23T16:16:09.847Z,6.4
2022-09-23T16:20:16.845Z,7
2022-09-23T16:22:18.865Z,7
2022-09-23T16:24:23.603Z,6
2022-09-23T16:26:22.900Z,6.8
2022-09-23T16:28:24.904Z,6.8
2022-09-23T16:34:34.063Z,6.6
2022-09-23T16:36:36.056Z,7.4
2022-09-23T16:38:38.082Z,9.9
2022-09-23T16:40:44.877Z,12.2
2022-09-23T16:42:42.127Z,6.8
2022-09-23T16:44:44.172Z,9
2022-09-23T16:46:46.166Z,7.8
2022-09-23T16:50:53.269Z,7
2022-09-23T16:52:55.311Z,6.7
2022-09-23T16:55:17.829Z,6.9
2022-09-23T16:57:19.860Z,5.8
2022-09-23T16:59:21.904Z,6
2022-09-23T17:01:27.069Z,6.2
2022-09-23T17:03:29.045Z,5.4
2022-09-23T17:05:31.040Z,6.1
2022-09-23T17:07:33.060Z,6.6
2022-09-23T17:09:35.091Z,6.1
2022-09-23T17:17:46.279Z,6.3
2022-09-23T17:19:48.298Z,5.9
2022-09-23T17:23:52.355Z,6.2
2022-09-23T17:30:01.518Z,6.5
2022-09-23T17:32:03.535Z,5.7
2022-09-23T17:34:05.617Z,6.7
2022-09-23T17:36:07.584Z,7
2022-09-23T17:38:09.637Z,6.9
2022-09-23T17:40:11.718Z,6.6
2022-09-23T17:42:13.691Z,6.1
2022-09-23T17:44:18.788Z,6
2022-09-23T17:46:20.873Z,6.1
2022-09-23T17:48:22.852Z,5.8
2022-09-23T17:49:25.389Z,6.2
2022-09-23T17:51:27.442Z,5.3
2022-09-23T17:53:29.453Z,6.1
2022-09-23T17:55:31.513Z,7.2
2022-09-23T17:57:36.600Z,6.8
2022-09-23T17:59:38.644Z,6.7
2022-09-23T18:01:40.721Z,7
2022-09-23T18:03:42.718Z,9
2022-09-23T18:05:44.747Z,7.1
2022-09-23T18:07:46.778Z,8
2022-09-23T18:09:48.790Z,7.7
2022-09-23T18:11:53.897Z,8.5
2022-09-23T18:13:55.943Z,8.2
2022-09-23T18:15:58.060Z,9.6
2022-09-23T18:20:02.051Z,9.5
2022-09-23T18:28:13.273Z,10.1
2022-09-23T18:30:15.285Z,9.1
2022-09-23T18:32:17.403Z,9.4
2022-09-23T18:38:23.450Z,12
2022-09-23T18:40:28.634Z,15
2022-09-23T18:42:30.619Z,13.5
2022-09-23T18:44:34.173Z,11.8
2022-09-23T18:49:40.748Z,15.5
2022-09-23T18:51:42.802Z,14.5
2022-09-23T18:53:47.959Z,17.9
2022-09-23T18:55:50.045Z,17.8
2022-09-23T18:57:51.986Z,14.6
2022-09-23T18:59:54.034Z,16.5
2022-09-23T19:01:56.220Z,15.3
2022-09-23T19:03:58.097Z,13.9
2022-09-23T19:08:05.254Z,17
2022-09-23T19:12:09.336Z,17.4
2022-09-23T19:14:11.710Z,18.6
2022-09-23T19:16:13.482Z,17.5
2022-09-23T19:18:15.455Z,17.4
2022-09-23T19:20:17.517Z,18.7
2022-09-23T19:22:22.588Z,19
2022-09-23T19:24:24.645Z,20.4
2022-09-23T19:26:26.684Z,20.5
2022-09-23T19:28:28.730Z,19.1
2022-09-23T19:30:30.760Z,17.8
2022-09-23T19:32:32.816Z,20.1
2022-09-23T19:34:34.843Z,18.6
2022-09-23T19:36:39.954Z,21.6
2022-09-23T19:38:42.005Z,19.5
2022-09-23T19:40:49.047Z,18
2022-09-23T19:41:46.591Z,19.3
2022-09-23T19:43:48.620Z,20
2022-09-23T19:45:50.674Z,19
2022-09-23T19:47:52.731Z,17.6
2022-09-23T19:49:57.808Z,19.5
2022-09-23T19:51:59.876Z,18.2
2022-09-23T19:54:01.939Z,20.6
2022-09-23T19:56:03.984Z,21.1
2022-09-23T19:58:06.031Z,21.2
2022-09-23T20:00:08.059Z,20.6
2022-09-23T20:02:10.163Z,21.2
2022-09-23T20:04:15.218Z,23.3
2022-09-23T20:06:17.250Z,22.5
2022-09-23T20:08:19.307Z,24.7
2022-09-23T20:12:23.375Z,23.6
2022-09-23T20:14:25.416Z,24
2022-09-23T20:16:27.562Z,23.6
2022-09-23T20:20:34.636Z,26.3
2022-09-23T20:22:36.675Z,23.8
2022-09-23T20:24:38.730Z,26.7
2022-09-23T20:26:40.767Z,27.8
2022-09-23T20:28:42.792Z,29.5
2022-09-23T20:30:44.850Z,33
2022-09-23T20:32:49.941Z,28.9
2022-09-23T20:34:51.982Z,30.3
2022-09-23T20:36:54.030Z,29.3
2022-09-23T20:39:17.019Z,33.1
2022-09-23T20:41:19.120Z,29.9
2022-09-23T20:43:21.142Z,28.7
2022-09-23T20:45:26.273Z,30.9
2022-09-23T20:47:28.310Z,27.4
2022-09-23T20:49:30.336Z,28
2022-09-23T20:51:32.382Z,27.7
2022-09-23T20:53:34.420Z,28
2022-09-23T20:59:43.600Z,27.4
2022-09-23T21:01:45.798Z,26.3
2022-09-23T21:03:47.704Z,28.3
2022-09-23T21:05:49.742Z,27
2022-09-23T21:07:51.806Z,27.8
2022-09-23T21:09:53.832Z,26.6
2022-09-23T21:11:55.867Z,27.8
2022-09-23T21:14:01.054Z,28.2
2022-09-23T21:16:03.206Z,24.4
2022-09-23T21:18:05.673Z,23
2022-09-23T21:20:07.090Z,23.2
2022-09-23T21:22:09.137Z,23.8
2022-09-23T21:24:45.323Z,22.4
2022-09-23T21:26:13.214Z,24.3
2022-09-23T21:28:18.320Z,22.8
2022-09-23T21:30:20.362Z,22.1
2022-09-23T21:33:24.962Z,21.8
2022-09-23T21:35:26.994Z,22.8
2022-09-23T21:37:29.033Z,21.5
2022-09-23T21:39:31.066Z,20.6
2022-09-23T21:41:36.163Z,21.4
2022-09-23T21:43:38.214Z,20.4
2022-09-23T21:45:40.223Z,20.8
2022-09-23T21:47:42.275Z,19.2
2022-09-23T21:49:48.491Z,21.5
2022-09-23T21:51:46.332Z,21.9
2022-09-23T21:53:48.381Z,22.4
2022-09-23T21:55:53.473Z,23.4
2022-09-23T21:57:55.512Z,22.1
2022-09-23T21:59:57.564Z,21.6
2022-09-23T22:01:59.616Z,19.4
2022-09-23T22:06:03.678Z,23.5
2022-09-23T22:08:05.745Z,22.7
2022-09-23T22:14:14.922Z,21.9
2022-09-23T22:16:17.019Z,20.8
2022-09-23T22:22:23.085Z,21.8
2022-09-23T22:24:28.168Z,21.7
2022-09-23T22:26:30.219Z,21.8
2022-09-23T22:28:32.297Z,22.2
2022-09-23T22:29:34.818Z,22.1
2022-09-23T22:33:38.890Z,20.6
2022-09-23T22:37:46.081Z,23.6
2022-09-23T22:39:48.100Z,21.4
2022-09-23T22:45:54.220Z,21.2
2022-09-23T22:47:56.266Z,22.6
2022-09-23T22:49:58.293Z,24.1
2022-09-23T22:52:03.390Z,23.2
2022-09-23T22:54:05.437Z,19.9
2022-09-23T22:56:07.472Z,23.9
2022-09-23T22:58:30.740Z,23.1
2022-09-23T23:02:13.725Z,23.5
2022-09-23T23:04:15.686Z,23.7
2022-09-23T23:06:20.766Z,23
2022-09-23T23:08:22.792Z,19.9
2022-09-23T23:10:24.814Z,22.9
2022-09-23T23:12:26.865Z,23.6
2022-09-23T23:14:28.916Z,23.1
2022-09-23T23:16:31.005Z,25
2022-09-23T23:18:32.976Z,26
2022-09-23T23:20:38.106Z,27
2022-09-23T23:22:40.119Z,25.9
2022-09-23T23:24:42.160Z,28.4
2022-09-23T23:25:44.699Z,29.3
2022-09-23T23:27:46.748Z,26.7
2022-09-23T23:29:48.781Z,28.4
2022-09-23T23:31:50.906Z,29.7
2022-09-23T23:33:55.916Z,29.7
2022-09-23T23:35:57.966Z,31.2
2022-09-23T23:37:59.995Z,29.3
2022-09-23T23:40:02.024Z,30
2022-09-23T23:42:04.075Z,29.7
2022-09-23T23:44:06.105Z,30.8
2022-09-23T23:46:08.180Z,29.5
2022-09-23T23:48:13.237Z,29.6
2022-09-23T23:50:15.296Z,31.1
2022-09-23T23:52:17.328Z,29.5
2022-09-23T23:54:19.376Z,31.9
2022-09-23T23:56:21.477Z,32.9
2022-09-23T23:58:23.456Z,30.7
